< < Back
Terminal Aerodrome Forecast


Current Version              Previous Versions:   1  2  3  4  5  6  7  8  9  

Terminal Aerodrome Forecast

739
FTUS42 KJAX 240100 AAA
TAFJAX
TAF AMD
KJAX 240120Z 2401/2424 18010KT P6SM VCSH FEW020 BKN035
     FM240600 19008KT 4SM BR BKN009 WS015/22035KT
     FM241600 21012KT P6SM BKN015
     FM241800 23011KT P6SM BKN025=



Latest METAR

665
SAUS80 KWBC 240300 RRA
MTRJAX
METAR KJAX 240256Z 16008KT 10SM FEW030 FEW060 BKN160 BKN210 22/21 A2989
RMK AO2 SLP121 T02170211 52007 $


USA.gov is the U.S. government's official web portal to all federal, state and local government web resources and services.